Wednesday, April 25, 2018, 1:08 AM EDT
Back to Local

KYNG, Youngstown-warren Reg Airprt

Location: Vienna, OH, United States Lat: 41.25
Local Time: 1:08 AM EDT ( 5:08 GMT) Lon: -80.667
Time Zone: US/Eastern Elev: 1197 ft

Show me the last for .
Show Decoded

2018-04-25 00:51 METAR KYNG 250451Z 10007KT 10SM -RA FEW006 BKN048 BKN070 OVC130 10/09 A2992 RMK
                 AO2 SLP134 P0000 T01000094 401610100 $ =
2018-04-25 00:40 METAR KYNG 250440Z 10007KT 10SM -RA FEW008 FEW025 OVC048 10/09 A2992 RMK AO2
                 P0000 T01000094 $ =
2018-04-24 23:51 METAR KYNG 250351Z 10007KT 9SM -RA FEW006 BKN025 OVC050 10/09 A2994 RMK AO2
                 SLP141 P0000 T01000094 $ =
2018-04-24 23:29 METAR KYNG 250329Z 10008KT 8SM -RA SCT006 BKN025 OVC045 10/09 A2995 RMK AO2
                 P0000 T01000094 $ =
2018-04-24 22:51 METAR KYNG 250251Z 11007KT 7SM -RA SCT008 OVC030 10/09 A2996 RMK AO2 SLP148
                 P0003 60005 T01000094 58007 $ =
2018-04-24 21:51 METAR KYNG 250151Z 11012KT 6SM -RA BR BKN006 OVC013 11/09 A2998 RMK AO2 SLP154
                 P0001 T01060094 $ =
2018-04-24 21:43 METAR KYNG 250143Z 11012KT 7SM -RA BKN006 OVC013 11/09 A2998 RMK AO2 P0001
                 T01060094 $ =
2018-04-24 21:13 METAR KYNG 250113Z 11010KT 6SM -RA BR FEW008 BKN013 OVC050 11/09 A2998 RMK AO2
                 P0001 T01060094 $ =
2018-04-24 20:51 METAR KYNG 250051Z 11009KT 8SM -RA BKN009 OVC028 11/09 A2999 RMK AO2 SLP156
                 P0001 T01060094 =
2018-04-24 19:51 METAR KYNG 242351Z 11008KT 7SM -RA BKN009 OVC022 11/09 A2998 RMK AO2 SLP155
                 P0003 60016 T01060094 10111 20106 58010 =
2018-04-24 19:25 METAR KYNG 242325Z 11009KT 7SM -RA BKN012 OVC025 11/09 A2999 RMK AO2 P0002
                 T01060094 =
2018-04-24 18:51 METAR KYNG 242251Z 11011KT 9SM -RA SCT010 BKN016 OVC050 11/09 A3000 RMK AO2
                 SLP160 P0001 T01110094 =
2018-04-24 17:51 METAR KYNG 242151Z 11011KT 8SM -RA BKN010 OVC018 11/10 A3001 RMK AO2 SLP164
                 P0002 T01110100 =
2018-04-24 16:51 METAR KYNG 242051Z 11011KT 8SM -RA SCT008 BKN014 OVC060 11/10 A3002 RMK AO2
                 SLP166 P0001 60010 T01110100 58021 =
2018-04-24 15:51 METAR KYNG 241951Z 11012KT 6SM -RA BR BKN008 OVC028 11/09 A3004 RMK AO2 SLP173
                 P0003 T01110094 =
2018-04-24 14:51 METAR KYNG 241851Z 11012KT 4SM -RA BR BKN009 OVC019 11/09 A3006 RMK AO2 SLP182
                 P0006 T01060094 =
2018-04-24 14:37 METAR KYNG 241837Z 11012KT 4SM -RA BR BKN009 OVC019 11/09 A3007 RMK AO2 P0005
                 T01060094 =
2018-04-24 13:51 METAR KYNG 241751Z 11011G17KT 4SM -RA BR BKN010 OVC048 11/09 A3008 RMK AO2
                 SLP187 P0003 60005 T01060094 10122 20106 56019 =
2018-04-24 13:22 METAR KYNG 241722Z 11010KT 4SM -RA BR BKN010 BKN024 OVC048 11/09 A3009 RMK AO2
                 P0001 T01060089 =
2018-04-24 12:51 METAR KYNG 241651Z 10014KT 5SM -RA BR BKN017 OVC046 11/08 A3010 RMK AO2 SLP192
                 P0002 T01060083 =
2018-04-24 11:51 METAR KYNG 241551Z 11012KT 8SM -RA FEW025 BKN038 OVC047 11/07 A3012 RMK AO2
                 RAB08 SLP199 P0000 T01110072 =
2018-04-24 10:51 METAR KYNG 241451Z 11013G20KT 10SM OVC042 12/06 A3014 RMK AO2 SLP205 T01170056
                 58008 =
2018-04-24 09:51 METAR KYNG 241351Z 12012G18KT 10SM BKN044 OVC090 12/04 A3015 RMK AO2 SLP211
                 T01220039 =
2018-04-24 08:51 METAR KYNG 241251Z 11012KT 10SM FEW047 BKN095 OVC120 12/05 A3016 RMK AO2 SLP213
                 T01170050 =
2018-04-24 07:51 METAR KYNG 241151Z 11013KT 10SM BKN065 BKN090 OVC120 12/06 A3016 RMK AO2
                 RAB34E47 SLP213 P0000 60000 T01170056 10144 20111 55001 =
2018-04-24 06:51 METAR KYNG 241051Z 11009KT 10SM OVC060 11/06 A3016 RMK AO2 RAB0956E12 SLP212
                 P0000 T01110056 =
2018-04-24 05:51 METAR KYNG 240951Z 12009KT 10SM OVC060 11/07 A3016 RMK AO2 RAE06B31E49 SLP212
                 P0000 T01110072 =
2018-04-24 04:51 METAR KYNG 240851Z 11008KT 10SM -RA OVC055 12/07 A3017 RMK AO2 SLP213 P0000
                 60000 T01170072 57005 =
2018-04-24 03:51 METAR KYNG 240751Z 14008KT 10SM -RA FEW047 SCT065 OVC085 13/08 A3018 RMK AO2
                 RAB12 SLP217 P0000 T01280078 =
2018-04-24 02:51 METAR KYNG 240651Z 11007KT 10SM FEW065 BKN080 OVC120 13/07 A3017 RMK AO2 RAE20
                 SLP214 P0000 T01330072 =
2018-04-24 01:51 METAR KYNG 240551Z 19003KT 10SM -RA OVC080 14/04 A3018 RMK AO2 RAB48 SLP218
                 P0000 60000 T01440039 10194 20144 58003 =

Support USWX by starting your Amazon purchase here.